createdAt,value
2023-11-28T00:02:26.628Z,37.0
2023-11-28T00:05:26.493Z,41.0
2023-11-28T00:08:27.067Z,31.0
2023-11-28T00:11:25.475Z,26.0
2023-11-28T00:14:25.485Z,32.0
2023-11-28T00:17:28.076Z,35.0
2023-11-28T00:20:26.642Z,34.0
2023-11-28T00:23:26.417Z,34.0
2023-11-28T00:26:25.800Z,40.0
2023-11-28T00:29:25.813Z,38.0
2023-11-28T00:32:26.115Z,43.0
2023-11-28T00:35:25.896Z,49.0
2023-11-28T00:38:25.411Z,50.0
2023-11-28T00:41:25.752Z,48.0
2023-11-28T00:44:25.601Z,40.0
2023-11-28T00:47:25.880Z,42.0
2023-11-28T00:50:25.861Z,51.0
2023-11-28T00:53:26.619Z,46.0
2023-11-28T00:56:25.335Z,45.0
2023-11-28T00:59:25.362Z,44.0
2023-11-28T01:02:26.422Z,42.0
2023-11-28T01:05:26.667Z,47.0
2023-11-28T01:08:26.094Z,45.0
2023-11-28T01:11:25.529Z,46.0
2023-11-28T01:14:25.600Z,51.0
2023-11-28T01:17:25.957Z,52.0
2023-11-28T01:20:25.621Z,45.0
2023-11-28T01:23:25.432Z,40.0
2023-11-28T01:26:25.630Z,42.0
2023-11-28T01:29:25.476Z,40.0
2023-11-28T01:32:26.241Z,44.0
2023-11-28T01:35:36.291Z,45.0
2023-11-28T01:38:25.826Z,51.0
2023-11-28T01:41:26.364Z,48.0
2023-11-28T01:44:25.545Z,38.0
2023-11-28T01:47:25.400Z,38.0
2023-11-28T01:50:25.931Z,42.0
2023-11-28T01:53:25.485Z,42.0
2023-11-28T01:56:25.549Z,38.0
2023-11-28T01:59:25.434Z,46.0
2023-11-28T02:02:25.957Z,47.0
2023-11-28T02:05:26.446Z,49.0
2023-11-28T02:08:25.778Z,44.0
2023-11-28T02:11:26.004Z,47.0
2023-11-28T02:14:26.565Z,36.0
2023-11-28T02:17:25.928Z,47.0
2023-11-28T02:20:25.761Z,46.0
2023-11-28T02:23:25.645Z,34.0
2023-11-28T02:26:25.651Z,39.0
2023-11-28T02:29:25.589Z,48.0
2023-11-28T02:32:26.026Z,44.0
2023-11-28T02:35:35.565Z,42.0
2023-11-28T02:38:25.582Z,46.0
2023-11-28T02:41:25.829Z,42.0
2023-11-28T02:44:25.449Z,45.0
2023-11-28T02:47:25.694Z,40.0
2023-11-28T02:50:25.571Z,40.0
2023-11-28T02:53:25.589Z,39.0
2023-11-28T02:56:25.552Z,35.0
2023-11-28T02:59:25.678Z,41.0
2023-11-28T03:02:26.207Z,45.0
2023-11-28T03:05:25.918Z,43.0
2023-11-28T03:08:25.957Z,51.0
2023-11-28T03:11:25.678Z,45.0
2023-11-28T03:14:25.557Z,48.0
2023-11-28T03:17:26.096Z,45.0
2023-11-28T03:20:25.787Z,50.0
2023-11-28T03:23:25.748Z,47.0
2023-11-28T03:26:25.471Z,47.0
2023-11-28T03:29:25.443Z,40.0
2023-11-28T03:32:25.986Z,39.0
2023-11-28T03:35:25.600Z,37.0
2023-11-28T03:38:25.565Z,39.0
2023-11-28T03:41:28.218Z,23.0
2023-11-28T03:44:25.581Z,26.0
2023-11-28T03:47:26.364Z,20.0
2023-11-28T03:50:26.051Z,20.0
2023-11-28T03:53:25.809Z,17.0
2023-11-28T03:56:25.617Z,15.0
2023-11-28T03:59:25.762Z,21.0
2023-11-28T04:02:26.648Z,15.0
2023-11-28T04:05:26.889Z,26.0
2023-11-28T04:08:25.695Z,22.0
2023-11-28T04:11:25.532Z,24.0
2023-11-28T04:14:25.524Z,17.0
2023-11-28T04:17:25.608Z,21.0
2023-11-28T04:20:26.990Z,21.0
2023-11-28T04:23:25.670Z,16.0
2023-11-28T04:26:25.630Z,18.0
2023-11-28T04:29:25.616Z,20.0
2023-11-28T04:32:27.061Z,20.0
2023-11-28T04:35:25.956Z,15.0
2023-11-28T04:38:25.778Z,9.0
2023-11-28T04:41:25.695Z,16.0
2023-11-28T04:44:25.559Z,15.0
2023-11-28T04:47:25.904Z,19.0
2023-11-28T04:50:25.706Z,23.0
2023-11-28T04:53:25.653Z,16.0
2023-11-28T04:56:25.606Z,19.0
2023-11-28T04:59:25.474Z,14.0
2023-11-28T05:02:27.995Z,18.0
2023-11-28T05:05:26.406Z,14.0
2023-11-28T05:08:25.460Z,10.0
2023-11-28T05:11:25.576Z,8.0
2023-11-28T05:14:25.940Z,5.0
2023-11-28T05:17:35.945Z,4.0
2023-11-28T05:20:26.267Z,8.0
2023-11-28T05:23:27.836Z,32.0
2023-11-28T05:26:25.894Z,23.0
2023-11-28T05:29:27.477Z,20.0
2023-11-28T05:32:25.775Z,16.0
2023-11-28T05:35:25.695Z,107.0
2023-11-28T05:38:25.544Z,65.0
2023-11-28T05:41:27.960Z,24.0
2023-11-28T05:44:25.779Z,27.0
2023-11-28T05:47:25.900Z,29.0
2023-11-28T05:50:25.715Z,71.0
2023-11-28T05:53:25.549Z,38.0
2023-11-28T05:56:26.877Z,23.0
2023-11-28T05:59:25.686Z,24.0
2023-11-28T06:02:28.394Z,16.0
2023-11-28T06:05:26.346Z,17.0
2023-11-28T06:08:25.616Z,22.0
2023-11-28T06:11:25.693Z,25.0
2023-11-28T06:14:28.745Z,26.0
2023-11-28T06:17:25.734Z,25.0
2023-11-28T06:20:25.699Z,37.0
2023-11-28T06:23:25.673Z,63.0
2023-11-28T06:26:25.613Z,45.0
2023-11-28T06:29:25.569Z,39.0
2023-11-28T06:32:25.813Z,46.0
2023-11-28T06:35:25.919Z,39.0
2023-11-28T06:38:25.712Z,106.0
2023-11-28T06:41:25.803Z,98.0
2023-11-28T06:44:25.592Z,95.0
2023-11-28T06:47:25.803Z,64.0
2023-11-28T06:50:26.450Z,44.0
2023-11-28T06:53:25.733Z,50.0
2023-11-28T06:56:27.603Z,50.0
2023-11-28T06:59:25.395Z,36.0
2023-11-28T07:02:28.677Z,27.0
2023-11-28T07:05:26.211Z,48.0
2023-11-28T07:08:25.613Z,48.0
2023-11-28T07:11:26.017Z,75.0
2023-11-28T07:14:25.975Z,32.0
2023-11-28T07:17:25.878Z,30.0
2023-11-28T07:20:29.166Z,43.0
2023-11-28T07:23:25.749Z,27.0
2023-11-28T07:26:25.667Z,23.0
2023-11-28T07:29:25.583Z,58.0
2023-11-28T07:32:26.134Z,55.0
2023-11-28T07:35:25.622Z,50.0
2023-11-28T07:38:27.370Z,58.0
2023-11-28T07:41:25.645Z,63.0
2023-11-28T07:44:26.487Z,65.0
2023-11-28T07:47:25.654Z,75.0
2023-11-28T07:50:25.482Z,79.0
2023-11-28T07:53:25.534Z,87.0
2023-11-28T07:56:25.582Z,100.0
2023-11-28T07:59:28.895Z,126.0
2023-11-28T08:02:25.701Z,105.0
2023-11-28T08:05:29.220Z,100.0
2023-11-28T08:08:25.722Z,92.0
2023-11-28T08:11:25.832Z,84.0
2023-11-28T08:14:37.010Z,89.0
2023-11-28T08:17:25.857Z,102.0
2023-11-28T08:20:30.713Z,115.0
2023-11-28T08:23:25.627Z,113.0
2023-11-28T08:26:25.604Z,108.0
2023-11-28T08:29:25.738Z,113.0
2023-11-28T08:32:27.993Z,110.0
2023-11-28T08:35:25.868Z,98.0
2023-11-28T08:38:26.438Z,123.0
2023-11-28T08:41:26.348Z,106.0
2023-11-28T08:44:25.803Z,112.0
2023-11-28T08:47:28.245Z,117.0
2023-11-28T08:50:25.908Z,118.0
2023-11-28T08:53:27.173Z,113.0
2023-11-28T08:56:25.723Z,105.0
2023-11-28T08:59:26.293Z,132.0
2023-11-28T09:02:27.425Z,127.0
2023-11-28T09:05:26.561Z,97.0
2023-11-28T09:08:25.774Z,77.0
2023-11-28T09:11:26.705Z,73.0
2023-11-28T09:14:29.649Z,74.0
2023-11-28T09:17:25.961Z,69.0
2023-11-28T09:20:32.197Z,54.0
2023-11-28T09:23:25.708Z,52.0
2023-11-28T09:26:35.174Z,47.0
2023-11-28T09:29:25.754Z,52.0
2023-11-28T09:32:25.982Z,58.0
2023-11-28T09:35:27.492Z,60.0
2023-11-28T09:38:26.360Z,66.0
2023-11-28T09:41:31.363Z,60.0
2023-11-28T09:44:25.695Z,57.0
2023-11-28T09:47:26.232Z,59.0
2023-11-28T09:50:27.181Z,56.0
2023-11-28T09:53:27.909Z,66.0
2023-11-28T09:56:25.621Z,74.0
2023-11-28T09:59:26.079Z,60.0
2023-11-28T10:02:26.192Z,50.0
2023-11-28T10:05:26.395Z,39.0
2023-11-28T10:08:26.241Z,36.0
2023-11-28T10:11:29.405Z,33.0
2023-11-28T10:14:25.978Z,43.0
2023-11-28T10:17:25.763Z,46.0
2023-11-28T10:20:25.811Z,51.0
2023-11-28T10:23:25.868Z,61.0
2023-11-28T10:26:27.183Z,60.0
2023-11-28T10:29:25.627Z,51.0
2023-11-28T10:32:29.042Z,44.0
2023-11-28T10:35:26.078Z,44.0
2023-11-28T10:38:26.086Z,39.0
2023-11-28T10:41:25.616Z,39.0
2023-11-28T10:44:27.393Z,45.0
2023-11-28T10:47:25.795Z,53.0
2023-11-28T10:50:26.121Z,69.0
2023-11-28T10:53:25.597Z,79.0
2023-11-28T10:56:27.487Z,102.0
2023-11-28T10:59:25.400Z,130.0
2023-11-28T11:02:25.907Z,134.0
2023-11-28T11:05:26.182Z,132.0
2023-11-28T11:08:25.426Z,119.0
2023-11-28T11:11:26.932Z,109.0
2023-11-28T11:14:25.833Z,103.0
2023-11-28T11:17:27.541Z,87.0
2023-11-28T11:20:25.921Z,98.0
2023-11-28T11:23:27.541Z,102.0
2023-11-28T11:26:25.511Z,96.0
2023-11-28T11:29:26.675Z,93.0
2023-11-28T11:32:25.659Z,85.0
2023-11-28T11:35:27.528Z,96.0
2023-11-28T11:38:25.611Z,100.0
2023-11-28T11:41:25.654Z,92.0
2023-11-28T11:44:25.557Z,92.0
2023-11-28T11:47:26.115Z,94.0
2023-11-28T11:50:32.299Z,94.0
2023-11-28T11:53:25.726Z,85.0
2023-11-28T11:56:25.607Z,102.0
2023-11-28T11:59:26.793Z,92.0
2023-11-28T12:02:25.970Z,85.0
2023-11-28T12:05:26.700Z,93.0
2023-11-28T12:08:25.822Z,92.0
2023-11-28T12:11:25.768Z,108.0
2023-11-28T12:14:25.481Z,90.0
2023-11-28T12:17:26.094Z,83.0
2023-11-28T12:20:32.727Z,89.0
2023-11-28T12:23:25.541Z,93.0
2023-11-28T12:26:25.770Z,87.0
2023-11-28T12:29:25.528Z,96.0
2023-11-28T12:32:25.737Z,101.0
2023-11-28T12:35:27.408Z,105.0
2023-11-28T12:38:25.510Z,109.0
2023-11-28T12:41:34.876Z,102.0
2023-11-28T12:44:25.522Z,96.0
2023-11-28T12:47:25.922Z,109.0
2023-11-28T12:50:26.027Z,112.0
2023-11-28T12:53:25.569Z,95.0
2023-11-28T12:56:25.942Z,164.0
2023-11-28T12:59:26.684Z,446.0
2023-11-28T13:02:29.778Z,472.0
2023-11-28T13:05:25.876Z,313.0
2023-11-28T13:08:58.683Z,98.0
2023-11-28T13:11:25.881Z,105.0
2023-11-28T13:14:36.100Z,72.0
2023-11-28T13:17:36.795Z,55.0
2023-11-28T13:20:26.404Z,67.0
2023-11-28T13:23:25.738Z,124.0
2023-11-28T13:26:25.579Z,146.0
2023-11-28T13:29:25.510Z,151.0
2023-11-28T13:32:25.926Z,124.0
2023-11-28T13:35:26.010Z,181.0
2023-11-28T13:38:25.929Z,162.0
2023-11-28T13:41:25.760Z,112.0
2023-11-28T13:44:25.660Z,82.0
2023-11-28T13:47:25.774Z,101.0
2023-11-28T13:50:25.966Z,112.0
2023-11-28T13:53:25.631Z,113.0
2023-11-28T13:56:25.560Z,87.0
2023-11-28T13:59:25.618Z,62.0
2023-11-28T14:02:32.456Z,57.0
2023-11-28T14:05:26.039Z,51.0
2023-11-28T14:08:25.518Z,45.0
2023-11-28T14:11:25.547Z,48.0
2023-11-28T14:14:25.705Z,48.0
2023-11-28T14:17:25.991Z,57.0
2023-11-28T14:20:26.224Z,64.0
2023-11-28T14:23:25.740Z,93.0
2023-11-28T14:26:25.692Z,104.0
2023-11-28T14:29:25.481Z,85.0
2023-11-28T14:32:25.801Z,96.0
2023-11-28T14:35:25.857Z,105.0
2023-11-28T14:38:26.087Z,107.0
2023-11-28T14:41:25.627Z,110.0
2023-11-28T14:44:25.678Z,104.0
2023-11-28T14:47:26.088Z,101.0
2023-11-28T14:50:25.968Z,84.0
2023-11-28T14:53:29.184Z,86.0
2023-11-28T14:56:25.524Z,99.0
2023-11-28T14:59:28.440Z,131.0
2023-11-28T15:02:26.270Z,126.0
2023-11-28T15:05:29.317Z,139.0
2023-11-28T15:08:30.910Z,152.0
2023-11-28T15:11:27.964Z,191.0
2023-11-28T15:14:25.856Z,206.0
2023-11-28T15:17:29.181Z,238.0
2023-11-28T15:20:25.778Z,243.0
2023-11-28T15:23:28.393Z,231.0
2023-11-28T15:26:25.689Z,232.0
2023-11-28T15:29:28.954Z,436.0
2023-11-28T15:32:25.942Z,370.0
2023-11-28T15:35:29.796Z,270.0
2023-11-28T15:38:33.209Z,177.0
2023-11-28T15:41:25.566Z,155.0
2023-11-28T15:44:26.010Z,141.0
2023-11-28T15:47:28.821Z,155.0
2023-11-28T15:50:37.767Z,170.0
2023-11-28T15:53:34.113Z,157.0
2023-11-28T15:56:25.556Z,165.0
2023-11-28T15:59:25.614Z,152.0
2023-11-28T16:02:26.460Z,142.0
2023-11-28T16:05:26.053Z,131.0
2023-11-28T16:08:25.851Z,124.0
2023-11-28T16:11:25.599Z,127.0
2023-11-28T16:14:27.449Z,108.0
2023-11-28T16:17:26.195Z,109.0
2023-11-28T16:20:28.160Z,127.0
2023-11-28T16:23:25.780Z,133.0
2023-11-28T16:26:25.669Z,134.0
2023-11-28T16:29:25.645Z,135.0
2023-11-28T16:32:28.916Z,139.0
2023-11-28T16:35:25.842Z,125.0
2023-11-28T16:38:26.460Z,190.0
2023-11-28T16:41:25.667Z,180.0
2023-11-28T16:44:26.547Z,163.0
2023-11-28T16:47:25.726Z,165.0
2023-11-28T16:50:25.882Z,155.0
2023-11-28T16:53:25.525Z,168.0
2023-11-28T16:56:25.671Z,184.0
2023-11-28T16:59:25.746Z,164.0
2023-11-28T17:02:26.221Z,181.0
2023-11-28T17:05:25.849Z,190.0
2023-11-28T17:08:25.814Z,183.0
2023-11-28T17:11:25.658Z,194.0
2023-11-28T17:14:29.141Z,213.0
2023-11-28T17:17:25.969Z,227.0
2023-11-28T17:20:25.940Z,231.0
2023-11-28T17:23:25.438Z,209.0
2023-11-28T17:26:25.589Z,184.0
2023-11-28T17:29:25.443Z,192.0
2023-11-28T17:32:25.778Z,199.0
2023-11-28T17:35:28.969Z,231.0
2023-11-28T17:38:25.484Z,213.0
2023-11-28T17:41:27.933Z,172.0
2023-11-28T17:44:25.538Z,152.0
2023-11-28T17:47:27.700Z,125.0
2023-11-28T17:50:25.718Z,194.0
2023-11-28T17:53:25.483Z,514.0
2023-11-28T17:56:25.489Z,207.0
2023-11-28T17:59:25.567Z,118.0
2023-11-28T18:02:27.272Z,116.0
2023-11-28T18:05:26.516Z,96.0
2023-11-28T18:08:25.568Z,103.0
2023-11-28T18:11:25.779Z,99.0
2023-11-28T18:14:25.481Z,101.0
2023-11-28T18:17:32.308Z,94.0
2023-11-28T18:20:26.625Z,90.0
2023-11-28T18:23:30.795Z,86.0
2023-11-28T18:26:25.603Z,104.0
2023-11-28T18:29:25.677Z,87.0
2023-11-28T18:32:26.240Z,78.0
2023-11-28T18:35:25.890Z,81.0
2023-11-28T18:38:25.580Z,88.0
2023-11-28T18:41:29.192Z,93.0
2023-11-28T18:44:30.050Z,104.0
2023-11-28T18:47:25.840Z,110.0
2023-11-28T18:50:25.536Z,114.0
2023-11-28T18:53:25.446Z,116.0
2023-11-28T18:56:25.701Z,107.0
2023-11-28T18:59:25.933Z,147.0
2023-11-28T19:02:26.068Z,147.0
2023-11-28T19:05:26.734Z,136.0
2023-11-28T19:08:25.575Z,147.0
2023-11-28T19:11:25.611Z,121.0
2023-11-28T19:14:25.756Z,102.0
2023-11-28T19:17:25.537Z,192.0
2023-11-28T19:20:27.737Z,114.0
2023-11-28T19:23:25.413Z,101.0
2023-11-28T19:26:25.477Z,100.0
2023-11-28T19:29:25.628Z,99.0
2023-11-28T19:32:25.960Z,106.0
2023-11-28T19:35:25.554Z,102.0
2023-11-28T19:38:25.463Z,90.0
2023-11-28T19:41:25.703Z,105.0
2023-11-28T19:44:25.375Z,106.0
2023-11-28T19:47:26.853Z,109.0
2023-11-28T19:50:25.702Z,114.0
2023-11-28T19:53:25.800Z,124.0
2023-11-28T19:56:28.350Z,118.0
2023-11-28T19:59:25.505Z,127.0
2023-11-28T20:02:25.858Z,127.0
2023-11-28T20:05:26.037Z,120.0
2023-11-28T20:08:25.609Z,114.0
2023-11-28T20:11:28.096Z,125.0
2023-11-28T20:14:25.550Z,127.0
2023-11-28T20:17:25.771Z,130.0
2023-11-28T20:20:25.687Z,139.0
2023-11-28T20:23:25.387Z,157.0
2023-11-28T20:26:25.389Z,161.0
2023-11-28T20:29:27.900Z,164.0
2023-11-28T20:32:25.680Z,215.0
2023-11-28T20:35:26.149Z,197.0
2023-11-28T20:38:40.975Z,197.0
2023-11-28T20:41:27.401Z,216.0
2023-11-28T20:44:25.467Z,231.0
2023-11-28T20:47:25.455Z,236.0
2023-11-28T20:50:25.349Z,247.0
2023-11-28T20:53:25.303Z,250.0
2023-11-28T20:56:25.236Z,268.0
2023-11-28T20:59:25.516Z,266.0
2023-11-28T21:02:25.874Z,9.0
2023-11-28T21:05:25.388Z,16.0
2023-11-28T21:08:28.806Z,12.0
2023-11-28T21:11:25.190Z,11.0
2023-11-28T21:14:28.676Z,11.0
2023-11-28T21:17:25.480Z,6.0
2023-11-28T21:20:25.743Z,7.0
2023-11-28T21:23:25.337Z,8.0
2023-11-28T21:26:26.610Z,5.0
2023-11-28T21:29:25.246Z,7.0
2023-11-28T21:32:25.696Z,14.0
2023-11-28T21:35:25.510Z,8.0
2023-11-28T21:38:25.293Z,3.0
2023-11-28T21:41:25.520Z,6.0
2023-11-28T21:47:25.584Z,5.0
2023-11-28T21:50:32.623Z,6.0
2023-11-28T21:53:25.573Z,5.0
2023-11-28T21:56:25.361Z,4.0
2023-11-28T21:59:25.494Z,10.0
2023-11-28T22:02:25.872Z,10.0
2023-11-28T22:05:26.870Z,2.0
2023-11-28T22:08:26.025Z,5.0
2023-11-28T22:11:27.786Z,0.0
2023-11-28T22:14:25.228Z,6.0
2023-11-28T22:17:25.607Z,4.0
2023-11-28T22:20:25.286Z,3.0
2023-11-28T22:23:25.236Z,7.0
2023-11-28T22:26:25.248Z,5.0
2023-11-28T22:29:26.461Z,10.0
2023-11-28T22:32:25.447Z,17.0
2023-11-28T22:35:25.784Z,29.0
2023-11-28T22:38:25.242Z,30.0
2023-11-28T22:41:25.372Z,31.0
2023-11-28T22:44:25.248Z,44.0
2023-11-28T22:47:25.398Z,38.0
2023-11-28T22:50:25.998Z,46.0
2023-11-28T22:53:25.312Z,52.0
2023-11-28T22:56:25.302Z,49.0
2023-11-28T22:59:25.196Z,57.0
2023-11-28T23:02:26.401Z,53.0
2023-11-28T23:05:25.924Z,61.0
2023-11-28T23:08:25.722Z,55.0
2023-11-28T23:11:25.585Z,55.0
2023-11-28T23:14:27.376Z,61.0
2023-11-28T23:17:25.489Z,71.0
2023-11-28T23:20:25.932Z,78.0
2023-11-28T23:23:32.812Z,77.0
2023-11-28T23:26:25.715Z,77.0
2023-11-28T23:29:25.572Z,82.0
2023-11-28T23:32:26.013Z,91.0
2023-11-28T23:35:25.862Z,102.0
2023-11-28T23:38:25.676Z,96.0
2023-11-28T23:41:25.864Z,93.0
2023-11-28T23:44:33.569Z,98.0
2023-11-28T23:47:25.800Z,107.0
2023-11-28T23:50:26.270Z,109.0
2023-11-28T23:53:25.754Z,106.0
2023-11-28T23:56:25.665Z,89.0
2023-11-28T23:59:26.655Z,83.0
